Cary, NC (27519)

2:13 PM EDT on August 28, 2016 (GMT -0400)
Preston Village | | Change Station

Elev 433 ft 35.80 °N, 78.85 °W | Updated 368 days ago

Partly Cloudy
Partly Cloudy
87 °F
Feels Like 91 °F
N
8
Wind Variable Wind from ENE
Gusts mph

Today
High -- | Low -- °F
--% Chance of Precip.
Yesterday
High -- | Low -- °F
Precip. -- in
Pressure 30.17 in
Visibility 10.0 miles
Clouds Scattered Clouds 4800 ft
Scattered Clouds 25000 ft
Heat Index 91 °F
Dew Point 68 °F
Humidity 54%
Rainfall in
Snow Depth Not available.
6:44 AM 7:47 PM
Waning Crescent, 14% visible
METAR KRDU 281751Z 08012KT 10SM SCT048 SCT250 31/19 A3019 RMK AO2 SLP217 T03060189 10311 20222 58010
Pressure 30.17 in
Visibility 10.0 miles
Clouds Scattered Clouds 4800 ft
Scattered Clouds 25000 ft
Heat Index 91 °F
Dew Point 68 °F
Humidity 54%
Rainfall in
Snow Depth Not available.
6:44 AM 7:47 PM
Waning Crescent, 14% visible
METAR KRDU 281751Z 08012KT 10SM SCT048 SCT250 31/19 A3019 RMK AO2 SLP217 T03060189 10311 20222 58010

10-Day Weather Forecast

Almanac

Astronomy

Aug. 28, 2016 Rise Set
Actual Time
Civil Twilight
Nautical Twilight
Astronomical Twilight
Moon
Length of Visible Light
Length of Day
Tomorrow will be .
, % of the Moon is Illuminated

Today's Extremes

State Highs State Lows

Community

WunderPhotos

Upload Photos

1,935,644 photos uploaded!

WunderBlog® & News

Nearby

Air Quality

  Air Quality AQ Index Pollutant
Not available.

Snow Depth

Station Depth Elevation

Earthquake Activity

City Distance Mag. Time & Date
Minimum magnitude displayed is 2.5.

Coastal Water Temperatures

Place Temperature

Stations

Nearby Weather Stations

Station Location Temp. Windchill Dew Point Humidity Wind Precip. Elev Updated Type
                   

Watches & Warnings

There are currently no watches in effect.